createdAt,value
2019-02-15T04:27:16.099Z,1.70
2019-02-15T04:29:58.444Z,1.80
2019-02-15T04:32:40.543Z,1.90
2019-02-15T04:35:22.352Z,2.00
2019-02-15T04:38:04.608Z,1.90
2019-02-15T04:40:46.519Z,1.70
2019-02-15T04:43:29.668Z,1.80
2019-02-15T04:46:11.695Z,1.90
2019-02-15T04:52:19.194Z,1.80
2019-02-15T04:55:01.158Z,1.70
2019-02-15T04:57:43.351Z,1.50
2019-02-15T05:00:25.490Z,1.70
2019-02-15T05:03:07.525Z,1.80
2019-02-15T05:05:49.328Z,1.90
2019-02-15T05:08:31.386Z,1.90
2019-02-15T05:11:13.289Z,1.70
2019-02-15T05:13:55.557Z,1.90
2019-02-15T05:19:27.249Z,1.70
2019-02-15T05:22:09.782Z,1.80
2019-02-15T05:24:52.222Z,1.60
2019-02-15T05:27:34.168Z,1.60
2019-02-15T05:30:15.850Z,1.60
2019-02-15T05:32:57.781Z,1.50
2019-02-15T05:35:39.712Z,1.70
2019-02-15T05:38:22.259Z,1.70
2019-02-15T05:41:03.811Z,1.70
2019-02-15T05:43:34.184Z,1.60
2019-02-15T05:46:23.515Z,1.70
2019-02-15T05:49:05.555Z,1.70
2019-02-15T05:51:47.752Z,1.70
2019-02-15T05:54:30.024Z,1.60
2019-02-15T05:57:12.351Z,1.60
2019-02-15T05:59:54.137Z,1.60
2019-02-15T06:02:36.442Z,1.80
2019-02-15T06:05:18.526Z,1.80
2019-02-15T06:08:00.403Z,1.80
2019-02-15T06:14:07.396Z,1.30
2019-02-15T06:16:49.596Z,1.30
2019-02-15T06:19:31.555Z,1.30
2019-02-15T06:22:13.420Z,1.20
2019-02-15T06:24:43.704Z,1.10
2019-02-15T06:27:33.062Z,1.40
2019-02-15T06:30:15.270Z,1.20
2019-02-15T06:32:57.554Z,1.10
2019-02-15T06:35:43.788Z,1.20
2019-02-15T06:38:34.552Z,1.10
2019-02-15T06:40:57.713Z,1.20
2019-02-15T06:43:47.055Z,1.20
2019-02-15T06:46:29.162Z,1.20
2019-02-15T06:49:11.338Z,1.20
2019-02-15T06:55:01.694Z,1.00
2019-02-15T06:57:43.569Z,0.80
2019-02-15T07:00:44.590Z,0.80
2019-02-15T07:03:37.195Z,0.70
2019-02-15T07:06:19.085Z,0.70
2019-02-15T07:09:00.978Z,0.60
2019-02-15T07:11:43.865Z,0.80
2019-02-15T07:14:25.921Z,0.70
2019-02-15T07:17:07.988Z,0.90
2019-02-15T07:19:49.942Z,0.90
2019-02-15T07:22:31.980Z,0.90
2019-02-15T07:25:13.951Z,0.80
2019-02-15T07:27:55.914Z,0.80
2019-02-15T07:30:37.789Z,0.80
2019-02-15T07:33:19.547Z,0.70
2019-02-15T07:36:01.237Z,0.70
2019-02-15T07:38:43.242Z,0.70
2019-02-15T07:41:25.460Z,0.70
2019-02-15T07:44:07.528Z,0.80
2019-02-15T07:46:49.642Z,0.70
2019-02-15T07:49:31.470Z,0.90
2019-02-15T07:52:13.310Z,0.90
2019-02-15T07:54:55.277Z,0.80
2019-02-15T07:57:37.129Z,0.90
2019-02-15T08:00:19.015Z,1.10
2019-02-15T08:03:00.992Z,1.10
2019-02-15T08:05:42.933Z,1.20
2019-02-15T08:08:24.948Z,1.20
2019-02-15T08:11:07.062Z,1.10
2019-02-15T08:13:49.019Z,1.10
2019-02-15T08:16:31.231Z,1.20
2019-02-15T08:19:13.831Z,1.20
2019-02-15T08:21:56.243Z,1.40
2019-02-15T08:24:38.017Z,1.60
2019-02-15T08:27:19.816Z,1.70
2019-02-15T08:30:07.067Z,1.90
2019-02-15T08:32:42.466Z,2.00
2019-02-15T08:35:25.895Z,2.00
2019-02-15T08:38:08.145Z,2.10
2019-02-15T08:43:52.371Z,2.00
2019-02-15T08:46:38.686Z,2.20
2019-02-15T08:49:24.480Z,2.20
2019-02-15T08:52:06.409Z,2.10
2019-02-15T08:54:47.955Z,2.00
2019-02-15T08:57:36.170Z,2.10
2019-02-15T09:00:18.517Z,2.20
2019-02-15T09:03:00.553Z,2.30
2019-02-15T09:05:31.547Z,2.50
2019-02-15T09:08:13.084Z,2.80
2019-02-15T09:10:54.835Z,2.90
2019-02-15T09:13:37.182Z,3.00
2019-02-15T09:16:19.257Z,3.30
2019-02-15T09:19:01.767Z,3.30
2019-02-15T09:21:43.937Z,3.50
2019-02-15T09:24:27.090Z,3.70
2019-02-15T09:27:31.532Z,3.60
2019-02-15T09:30:14.065Z,3.60
2019-02-15T09:32:55.288Z,3.80
2019-02-15T09:35:37.844Z,4.10
2019-02-15T09:38:20.281Z,4.20
2019-02-15T09:41:02.790Z,4.30
2019-02-15T09:43:44.835Z,4.50
2019-02-15T09:46:26.970Z,4.60
2019-02-15T09:49:09.561Z,4.70
2019-02-15T09:51:51.203Z,4.80
2019-02-15T09:57:41.215Z,5.00
2019-02-15T10:00:23.496Z,5.20
2019-02-15T10:05:47.435Z,5.40
2019-02-15T10:08:29.223Z,5.50
2019-02-15T10:11:11.579Z,5.70
2019-02-15T10:13:53.599Z,5.80
2019-02-15T10:16:54.630Z,5.90
2019-02-15T10:19:36.768Z,6.00
2019-02-15T10:22:18.722Z,6.20
2019-02-15T10:25:00.964Z,6.50
2019-02-15T10:27:43.142Z,6.50
2019-02-15T10:30:25.438Z,6.70
2019-02-15T10:33:07.972Z,6.70
2019-02-15T10:35:50.103Z,6.80
2019-02-15T10:38:31.615Z,6.80
2019-02-15T10:41:14.418Z,6.80
2019-02-15T10:43:56.678Z,6.90
2019-02-15T10:46:38.804Z,6.90
2019-02-15T10:49:22.106Z,6.90
2019-02-15T10:52:04.790Z,7.10
2019-02-15T10:54:48.558Z,7.30
2019-02-15T10:57:30.423Z,7.50
2019-02-15T11:00:19.043Z,7.50
2019-02-15T11:02:49.584Z,7.60
2019-02-15T11:05:39.661Z,7.80
2019-02-15T11:08:22.034Z,7.90
2019-02-15T11:11:04.297Z,8.10
2019-02-15T11:13:46.610Z,8.00
2019-02-15T11:16:28.562Z,8.20
2019-02-15T11:19:11.132Z,8.10
2019-02-15T11:21:53.580Z,8.20
2019-02-15T11:24:36.784Z,8.20
2019-02-15T11:27:19.419Z,8.30
2019-02-15T11:30:01.511Z,8.50
2019-02-15T11:32:45.510Z,8.60
2019-02-15T11:35:27.605Z,8.60
2019-02-15T11:38:17.779Z,8.60
2019-02-15T11:41:19.418Z,8.50
2019-02-15T11:44:01.974Z,8.40
2019-02-15T11:46:44.591Z,8.40
2019-02-15T11:49:28.922Z,8.50
2019-02-15T11:52:11.878Z,8.60
2019-02-15T11:54:54.919Z,8.60
2019-02-15T11:57:37.749Z,8.50
2019-02-15T12:00:24.142Z,8.40
2019-02-15T12:06:03.730Z,8.70
2019-02-15T12:08:50.608Z,8.80
2019-02-15T12:14:20.734Z,8.90
2019-02-15T12:17:05.852Z,9.00
2019-02-15T12:19:48.122Z,8.90
2019-02-15T12:22:31.109Z,9.00
2019-02-15T12:25:13.947Z,9.00
2019-02-15T12:27:56.890Z,9.00
2019-02-15T12:30:39.605Z,9.00
2019-02-15T12:33:22.229Z,8.90
2019-02-15T12:36:03.412Z,8.90
2019-02-15T12:38:46.187Z,8.90
2019-02-15T12:41:28.384Z,8.90
2019-02-15T12:44:11.122Z,8.80
2019-02-15T12:46:53.225Z,9.10
2019-02-15T12:49:36.675Z,9.20
2019-02-15T12:52:20.878Z,9.20
2019-02-15T12:55:03.958Z,9.10
2019-02-15T12:57:46.631Z,9.10
2019-02-15T13:00:29.787Z,9.10
2019-02-15T13:03:14.796Z,9.40
2019-02-15T13:05:57.048Z,9.50
2019-02-15T13:08:39.875Z,9.60
2019-02-15T13:11:25.185Z,9.60
2019-02-15T13:14:07.086Z,9.70
2019-02-15T13:16:49.652Z,9.60
2019-02-15T13:19:32.040Z,9.50
2019-02-15T13:22:14.607Z,9.50
2019-02-15T13:24:56.138Z,9.40
2019-02-15T13:30:27.650Z,9.40
2019-02-15T13:33:11.339Z,9.40
2019-02-15T13:39:18.815Z,9.50
2019-02-15T13:42:01.048Z,9.50
2019-02-15T13:44:44.165Z,9.50
2019-02-15T13:47:34.384Z,9.70
2019-02-15T13:53:35.913Z,10.00
2019-02-15T13:56:18.429Z,10.00
2019-02-15T13:59:21.193Z,9.90
2019-02-15T14:02:03.497Z,9.90
2019-02-15T14:04:45.678Z,9.80
2019-02-15T14:10:17.419Z,10.10
2019-02-15T14:16:25.348Z,9.90
2019-02-15T14:19:08.569Z,9.80
2019-02-15T14:21:50.951Z,9.90
2019-02-15T14:24:33.456Z,9.90
2019-02-15T14:27:15.842Z,10.00
2019-02-15T14:29:57.354Z,10.00
2019-02-15T14:32:39.085Z,10.00
2019-02-15T14:35:22.120Z,10.20
2019-02-15T14:38:03.789Z,10.40
2019-02-15T14:40:45.805Z,11.00
2019-02-15T14:43:27.977Z,11.80
2019-02-15T14:46:09.892Z,13.70
2019-02-15T14:48:51.835Z,16.70
2019-02-15T14:51:33.777Z,19.20
2019-02-15T14:54:15.528Z,21.10
2019-02-15T14:56:57.921Z,21.90
2019-02-15T15:02:43.661Z,24.30
2019-02-15T15:05:25.819Z,24.70
2019-02-15T15:08:08.273Z,24.60
2019-02-15T15:10:50.189Z,24.70
2019-02-15T15:16:57.554Z,23.90
2019-02-15T15:19:40.170Z,22.90
2019-02-15T15:22:22.482Z,22.10
2019-02-15T15:25:04.673Z,21.50
2019-02-15T15:27:46.831Z,20.20
2019-02-15T15:30:28.718Z,18.40
2019-02-15T15:33:10.912Z,16.90
2019-02-15T15:35:53.271Z,15.70
2019-02-15T15:38:35.126Z,14.80
2019-02-15T15:41:17.571Z,13.90
2019-02-15T15:43:59.886Z,13.20
2019-02-15T15:46:42.217Z,12.40
2019-02-15T15:49:25.470Z,12.10
2019-02-15T15:52:07.738Z,11.70
2019-02-15T15:54:49.933Z,11.40
2019-02-15T15:57:31.974Z,11.10
2019-02-15T16:00:13.959Z,10.80
2019-02-15T16:02:55.873Z,10.70
2019-02-15T16:05:38.235Z,10.60
2019-02-15T16:08:20.814Z,10.50
2019-02-15T16:11:02.514Z,10.40
2019-02-15T16:13:44.552Z,10.20
2019-02-15T16:16:26.270Z,10.10
2019-02-15T16:19:10.528Z,9.90
2019-02-15T16:21:54.998Z,9.80
2019-02-15T16:24:37.899Z,9.80
2019-02-15T16:27:29.347Z,9.70
2019-02-15T16:30:13.858Z,9.60
2019-02-15T16:32:55.881Z,9.50
2019-02-15T16:35:38.136Z,9.40
2019-02-15T16:38:28.461Z,9.30
2019-02-15T16:43:59.295Z,9.10
2019-02-15T16:46:41.592Z,9.10
2019-02-15T16:49:23.764Z,9.00
2019-02-15T16:52:06.146Z,8.90
2019-02-15T16:54:50.171Z,8.80
2019-02-15T16:57:31.978Z,8.80
2019-02-15T17:00:16.147Z,8.70
2019-02-15T17:05:48.938Z,8.60
2019-02-15T17:08:34.315Z,8.60
2019-02-15T17:11:20.226Z,8.50
2019-02-15T17:14:02.942Z,8.40
2019-02-15T17:16:55.875Z,8.50
2019-02-15T17:19:40.756Z,8.40
2019-02-15T17:22:28.683Z,8.30
2019-02-15T17:25:11.334Z,8.30
2019-02-15T17:27:41.695Z,8.30
2019-02-15T17:30:23.650Z,8.30
2019-02-15T17:33:05.887Z,8.30
2019-02-15T17:35:48.697Z,8.20
2019-02-15T17:38:31.105Z,8.20
2019-02-15T17:41:12.917Z,8.20
2019-02-15T17:46:44.159Z,8.00
2019-02-15T17:49:27.166Z,8.00
2019-02-15T17:52:09.406Z,7.90
2019-02-15T17:54:51.795Z,7.90
2019-02-15T17:57:34.227Z,7.90
2019-02-15T18:00:19.190Z,7.80
2019-02-15T18:03:02.669Z,7.90
2019-02-15T18:05:45.598Z,7.80
2019-02-15T18:11:51.938Z,7.70
2019-02-15T18:14:33.905Z,7.70
2019-02-15T18:17:15.559Z,7.60
2019-02-15T18:20:16.184Z,7.70
2019-02-15T18:22:46.662Z,7.60
2019-02-15T18:25:28.833Z,7.60
2019-02-15T18:28:12.631Z,7.50
2019-02-15T18:30:54.855Z,7.50
2019-02-15T18:33:35.428Z,7.50
2019-02-15T18:36:17.967Z,7.40
2019-02-15T18:39:00.014Z,7.40
2019-02-15T18:41:41.918Z,7.30
2019-02-15T18:44:24.869Z,7.30
2019-02-15T18:47:07.450Z,7.30
2019-02-15T18:49:48.898Z,7.20
2019-02-15T18:55:40.221Z,7.10
2019-02-15T18:58:22.530Z,7.00
2019-02-15T19:00:52.851Z,7.00
2019-02-15T19:03:34.650Z,7.00
2019-02-15T19:06:16.767Z,7.00
2019-02-15T19:08:58.820Z,7.00
2019-02-15T19:11:40.938Z,7.00
2019-02-15T19:14:22.970Z,6.90
2019-02-15T19:17:06.099Z,6.80
2019-02-15T19:19:47.681Z,6.70
2019-02-15T19:25:40.219Z,6.70
2019-02-15T19:28:22.233Z,6.60
2019-02-15T19:31:04.673Z,6.60
2019-02-15T19:33:47.170Z,6.60
2019-02-15T19:36:29.281Z,6.50
2019-02-15T19:39:11.651Z,6.50
2019-02-15T19:41:53.783Z,6.50
2019-02-15T19:44:35.783Z,6.50
2019-02-15T19:50:26.239Z,6.50
2019-02-15T19:53:10.112Z,6.50
2019-02-15T19:55:40.613Z,6.50
2019-02-15T19:58:22.952Z,6.70
2019-02-15T20:01:06.162Z,6.50
2019-02-15T20:03:48.651Z,6.60
2019-02-15T20:06:37.106Z,6.60
2019-02-15T20:09:18.928Z,6.60
2019-02-15T20:12:01.252Z,6.60
2019-02-15T20:17:32.922Z,6.60
2019-02-15T20:20:15.405Z,6.60
2019-02-15T20:22:57.090Z,6.60
2019-02-15T20:25:45.605Z,6.60
2019-02-15T20:28:28.397Z,6.60
2019-02-15T20:31:11.509Z,6.60
2019-02-15T20:33:54.591Z,6.50
2019-02-15T20:36:37.693Z,6.40
2019-02-15T20:48:11.198Z,6.00
2019-02-15T20:50:50.905Z,6.20
2019-02-15T20:53:33.781Z,6.10
2019-02-15T20:56:16.460Z,5.90
2019-02-15T20:58:59.061Z,5.90
2019-02-15T21:01:41.884Z,6.00
2019-02-15T21:04:24.232Z,6.10
2019-02-15T21:06:54.544Z,6.00
2019-02-15T21:09:44.295Z,6.00
2019-02-15T21:12:26.557Z,6.00
2019-02-15T21:15:09.695Z,6.00
2019-02-15T21:17:52.183Z,5.80
2019-02-15T21:20:34.897Z,5.90
2019-02-15T21:23:18.622Z,6.00
2019-02-15T21:26:00.357Z,5.90
2019-02-15T21:28:44.255Z,5.80
2019-02-15T21:34:51.474Z,5.70
2019-02-15T21:37:22.820Z,5.40
2019-02-15T21:40:04.876Z,5.50
2019-02-15T21:42:46.829Z,5.40
2019-02-15T21:45:28.534Z,5.20
2019-02-15T21:48:10.515Z,5.30
2019-02-15T21:50:52.641Z,5.20
2019-02-15T21:56:54.690Z,5.20
2019-02-15T21:59:25.009Z,4.70
2019-02-15T22:02:14.377Z,4.50
2019-02-15T22:04:56.586Z,4.50
2019-02-15T22:07:38.883Z,4.60
2019-02-15T22:10:20.746Z,4.80
2019-02-15T22:13:02.893Z,4.60
2019-02-15T22:15:45.189Z,4.60
2019-02-15T22:18:27.312Z,4.40
2019-02-15T22:21:12.504Z,4.60
2019-02-15T22:24:02.535Z,4.50
2019-02-15T22:26:33.569Z,4.70
2019-02-15T22:29:16.206Z,4.60
2019-02-15T22:31:58.340Z,4.60
2019-02-15T22:34:40.350Z,4.60
2019-02-15T22:37:22.605Z,4.60
2019-02-15T22:40:04.680Z,4.80
2019-02-15T22:42:46.715Z,4.80
2019-02-15T22:45:28.906Z,4.70
2019-02-15T22:48:10.927Z,4.70
2019-02-15T22:50:52.878Z,4.90
2019-02-15T22:53:34.608Z,4.70
2019-02-15T22:59:42.121Z,4.30
2019-02-15T23:02:24.213Z,4.40
2019-02-15T23:05:06.005Z,4.40
2019-02-15T23:07:49.102Z,4.40
2019-02-15T23:10:30.759Z,4.30
2019-02-15T23:13:12.737Z,4.40
2019-02-15T23:15:54.798Z,4.10
2019-02-15T23:18:36.742Z,3.90
2019-02-15T23:21:18.790Z,4.00
2019-02-15T23:24:01.810Z,4.10
2019-02-15T23:26:43.849Z,4.30
2019-02-15T23:29:25.896Z,4.20
2019-02-15T23:35:17.097Z,3.70
2019-02-15T23:37:59.034Z,3.80
2019-02-15T23:43:36.124Z,3.80
2019-02-15T23:46:24.419Z,3.70
2019-02-15T23:49:06.233Z,3.50
2019-02-15T23:51:48.200Z,3.40
2019-02-15T23:54:30.300Z,3.60
2019-02-15T23:57:00.585Z,3.50
2019-02-15T23:59:49.940Z,3.50
